sensor_id;sensor_type;location;lat;lon;timestamp;temperature;humidity
29003;DHT22;16102;57.138;-2.118;2023-04-03T00:00:33;5.60;1.00
29003;DHT22;16102;57.138;-2.118;2023-04-03T00:03:01;5.60;1.00
29003;DHT22;16102;57.138;-2.118;2023-04-03T00:05:28;5.60;1.00
29003;DHT22;16102;57.138;-2.118;2023-04-03T00:07:55;5.60;1.00
29003;DHT22;16102;57.138;-2.118;2023-04-03T00:10:23;5.50;1.00
29003;DHT22;16102;57.138;-2.118;2023-04-03T00:12:50;5.50;1.00
29003;DHT22;16102;57.138;-2.118;2023-04-03T00:15:18;5.50;1.00
29003;DHT22;16102;57.138;-2.118;2023-04-03T00:17:44;5.50;1.00
29003;DHT22;16102;57.138;-2.118;2023-04-03T00:20:12;5.50;1.00
29003;DHT22;16102;57.138;-2.118;2023-04-03T00:22:39;5.40;1.00
29003;DHT22;16102;57.138;-2.118;2023-04-03T00:25:07;5.40;1.00
29003;DHT22;16102;57.138;-2.118;2023-04-03T00:27:37;5.50;1.00
29003;DHT22;16102;57.138;-2.118;2023-04-03T00:30:06;5.40;1.00
29003;DHT22;16102;57.138;-2.118;2023-04-03T00:32:33;5.40;1.00
29003;DHT22;16102;57.138;-2.118;2023-04-03T00:35:01;5.40;1.00
29003;DHT22;16102;57.138;-2.118;2023-04-03T00:37:27;5.40;1.00
29003;DHT22;16102;57.138;-2.118;2023-04-03T00:39:54;5.40;1.00
29003;DHT22;16102;57.138;-2.118;2023-04-03T00:42:21;5.30;1.00
29003;DHT22;16102;57.138;-2.118;2023-04-03T00:47:24;5.30;1.00
29003;DHT22;16102;57.138;-2.118;2023-04-03T00:49:53;5.30;1.00
29003;DHT22;16102;57.138;-2.118;2023-04-03T00:52:24;5.30;1.00
29003;DHT22;16102;57.138;-2.118;2023-04-03T00:54:54;5.30;1.00
29003;DHT22;16102;57.138;-2.118;2023-04-03T00:57:24;5.30;1.00
29003;DHT22;16102;57.138;-2.118;2023-04-03T00:59:56;5.30;1.00
29003;DHT22;16102;57.138;-2.118;2023-04-03T01:02:24;5.20;1.00
29003;DHT22;16102;57.138;-2.118;2023-04-03T01:04:51;5.20;1.00
29003;DHT22;16102;57.138;-2.118;2023-04-03T01:07:24;5.20;1.00
29003;DHT22;16102;57.138;-2.118;2023-04-03T01:09:59;5.10;1.00
29003;DHT22;16102;57.138;-2.118;2023-04-03T01:12:29;5.10;1.00
29003;DHT22;16102;57.138;-2.118;2023-04-03T01:14:59;5.20;1.00
29003;DHT22;16102;57.138;-2.118;2023-04-03T01:17:45;5.10;1.00
29003;DHT22;16102;57.138;-2.118;2023-04-03T01:28:27;5.00;1.00
29003;DHT22;16102;57.138;-2.118;2023-04-03T01:31:20;5.00;1.00
29003;DHT22;16102;57.138;-2.118;2023-04-03T01:33:49;5.00;1.00
29003;DHT22;16102;57.138;-2.118;2023-04-03T01:36:27;5.00;1.00
29003;DHT22;16102;57.138;-2.118;2023-04-03T01:38:57;5.10;1.00
29003;DHT22;16102;57.138;-2.118;2023-04-03T01:41:26;5.10;1.00
29003;DHT22;16102;57.138;-2.118;2023-04-03T01:43:53;5.10;1.00
29003;DHT22;16102;57.138;-2.118;2023-04-03T01:46:20;5.10;1.00
29003;DHT22;16102;57.138;-2.118;2023-04-03T01:48:47;5.10;1.00
29003;DHT22;16102;57.138;-2.118;2023-04-03T01:51:14;5.10;1.00
29003;DHT22;16102;57.138;-2.118;2023-04-03T01:53:41;5.20;1.00
29003;DHT22;16102;57.138;-2.118;2023-04-03T01:56:08;5.10;1.00
29003;DHT22;16102;57.138;-2.118;2023-04-03T01:58:35;5.10;1.00
29003;DHT22;16102;57.138;-2.118;2023-04-03T02:01:03;5.10;1.00
29003;DHT22;16102;57.138;-2.118;2023-04-03T02:03:30;5.20;1.00
29003;DHT22;16102;57.138;-2.118;2023-04-03T02:05:57;5.10;1.00
29003;DHT22;16102;57.138;-2.118;2023-04-03T02:08:24;5.10;1.00
29003;DHT22;16102;57.138;-2.118;2023-04-03T02:10:51;5.20;1.00
29003;DHT22;16102;57.138;-2.118;2023-04-03T02:13:18;5.20;1.00
29003;DHT22;16102;57.138;-2.118;2023-04-03T02:15:46;5.30;1.00
29003;DHT22;16102;57.138;-2.118;2023-04-03T02:18:13;5.30;1.00
29003;DHT22;16102;57.138;-2.118;2023-04-03T02:20:40;5.30;1.00
29003;DHT22;16102;57.138;-2.118;2023-04-03T02:23:07;5.30;1.00
29003;DHT22;16102;57.138;-2.118;2023-04-03T02:25:34;5.30;1.00
29003;DHT22;16102;57.138;-2.118;2023-04-03T02:28:04;5.40;1.00
29003;DHT22;16102;57.138;-2.118;2023-04-03T02:30:31;5.40;1.00
29003;DHT22;16102;57.138;-2.118;2023-04-03T02:32:58;5.30;1.00
29003;DHT22;16102;57.138;-2.118;2023-04-03T02:35:25;5.40;1.00
29003;DHT22;16102;57.138;-2.118;2023-04-03T02:37:52;5.40;1.00
29003;DHT22;16102;57.138;-2.118;2023-04-03T02:40:18;5.40;1.00
29003;DHT22;16102;57.138;-2.118;2023-04-03T02:42:45;5.40;1.00
29003;DHT22;16102;57.138;-2.118;2023-04-03T02:45:13;5.40;1.00
29003;DHT22;16102;57.138;-2.118;2023-04-03T02:47:40;5.40;1.00
29003;DHT22;16102;57.138;-2.118;2023-04-03T02:50:07;5.40;1.00
29003;DHT22;16102;57.138;-2.118;2023-04-03T02:52:35;5.40;1.00
29003;DHT22;16102;57.138;-2.118;2023-04-03T02:55:02;5.40;1.00
29003;DHT22;16102;57.138;-2.118;2023-04-03T02:57:30;5.40;1.00
29003;DHT22;16102;57.138;-2.118;2023-04-03T02:59:57;5.50;1.00
29003;DHT22;16102;57.138;-2.118;2023-04-03T03:02:24;5.50;1.00
29003;DHT22;16102;57.138;-2.118;2023-04-03T03:04:51;5.50;1.00
29003;DHT22;16102;57.138;-2.118;2023-04-03T03:07:18;5.50;1.00
29003;DHT22;16102;57.138;-2.118;2023-04-03T03:09:45;5.50;1.00
29003;DHT22;16102;57.138;-2.118;2023-04-03T03:12:12;5.50;1.00
29003;DHT22;16102;57.138;-2.118;2023-04-03T03:14:39;5.60;1.00
29003;DHT22;16102;57.138;-2.118;2023-04-03T03:17:06;5.60;1.00
29003;DHT22;16102;57.138;-2.118;2023-04-03T03:19:32;5.60;1.00
29003;DHT22;16102;57.138;-2.118;2023-04-03T03:21:59;5.60;1.00
29003;DHT22;16102;57.138;-2.118;2023-04-03T03:24:26;5.60;1.00
29003;DHT22;16102;57.138;-2.118;2023-04-03T03:26:53;5.70;1.00
29003;DHT22;16102;57.138;-2.118;2023-04-03T03:29:20;5.60;1.00
29003;DHT22;16102;57.138;-2.118;2023-04-03T03:31:47;5.60;1.00
29003;DHT22;16102;57.138;-2.118;2023-04-03T03:34:14;5.70;1.00
29003;DHT22;16102;57.138;-2.118;2023-04-03T03:36:41;5.70;1.00
29003;DHT22;16102;57.138;-2.118;2023-04-03T03:39:08;5.80;1.00
29003;DHT22;16102;57.138;-2.118;2023-04-03T03:41:34;5.80;1.00
29003;DHT22;16102;57.138;-2.118;2023-04-03T03:44:01;5.80;1.00
29003;DHT22;16102;57.138;-2.118;2023-04-03T03:46:28;5.80;1.00
29003;DHT22;16102;57.138;-2.118;2023-04-03T03:48:55;5.90;1.00
29003;DHT22;16102;57.138;-2.118;2023-04-03T03:51:22;5.90;1.00
29003;DHT22;16102;57.138;-2.118;2023-04-03T03:53:49;5.80;1.00
29003;DHT22;16102;57.138;-2.118;2023-04-03T03:56:16;5.80;1.00
29003;DHT22;16102;57.138;-2.118;2023-04-03T03:58:43;5.80;1.00
29003;DHT22;16102;57.138;-2.118;2023-04-03T04:01:10;5.90;1.00
29003;DHT22;16102;57.138;-2.118;2023-04-03T04:03:37;5.90;1.00
29003;DHT22;16102;57.138;-2.118;2023-04-03T04:06:04;5.90;1.00
29003;DHT22;16102;57.138;-2.118;2023-04-03T04:08:31;5.90;1.00
29003;DHT22;16102;57.138;-2.118;2023-04-03T04:10:58;5.90;1.00
29003;DHT22;16102;57.138;-2.118;2023-04-03T04:13:24;5.90;1.00
29003;DHT22;16102;57.138;-2.118;2023-04-03T04:15:51;5.90;1.00
29003;DHT22;16102;57.138;-2.118;2023-04-03T04:18:18;6.00;1.00
29003;DHT22;16102;57.138;-2.118;2023-04-03T04:20:46;6.00;1.00
29003;DHT22;16102;57.138;-2.118;2023-04-03T04:23:14;6.00;1.00
29003;DHT22;16102;57.138;-2.118;2023-04-03T04:25:41;5.90;1.00
29003;DHT22;16102;57.138;-2.118;2023-04-03T04:28:07;5.90;1.00
29003;DHT22;16102;57.138;-2.118;2023-04-03T04:30:34;5.90;1.00
29003;DHT22;16102;57.138;-2.118;2023-04-03T04:33:01;5.90;1.00
29003;DHT22;16102;57.138;-2.118;2023-04-03T04:35:28;5.90;1.00
29003;DHT22;16102;57.138;-2.118;2023-04-03T04:37:55;5.90;1.00
29003;DHT22;16102;57.138;-2.118;2023-04-03T04:40:22;6.00;1.00
29003;DHT22;16102;57.138;-2.118;2023-04-03T04:42:49;5.90;1.00
29003;DHT22;16102;57.138;-2.118;2023-04-03T04:45:18;5.90;1.00
29003;DHT22;16102;57.138;-2.118;2023-04-03T04:47:45;5.90;1.00
29003;DHT22;16102;57.138;-2.118;2023-04-03T04:50:12;5.90;1.00
29003;DHT22;16102;57.138;-2.118;2023-04-03T04:52:39;5.90;1.00
29003;DHT22;16102;57.138;-2.118;2023-04-03T04:55:06;5.90;1.00
29003;DHT22;16102;57.138;-2.118;2023-04-03T04:57:33;5.90;1.00
29003;DHT22;16102;57.138;-2.118;2023-04-03T05:00:01;5.80;1.00
29003;DHT22;16102;57.138;-2.118;2023-04-03T05:02:29;5.80;1.00
29003;DHT22;16102;57.138;-2.118;2023-04-03T05:04:56;5.80;1.00
29003;DHT22;16102;57.138;-2.118;2023-04-03T05:07:24;5.80;1.00
29003;DHT22;16102;57.138;-2.118;2023-04-03T05:09:51;5.80;1.00
29003;DHT22;16102;57.138;-2.118;2023-04-03T05:12:18;5.70;1.00
29003;DHT22;16102;57.138;-2.118;2023-04-03T05:14:45;5.70;1.00
29003;DHT22;16102;57.138;-2.118;2023-04-03T05:17:12;5.70;1.00
29003;DHT22;16102;57.138;-2.118;2023-04-03T05:19:38;5.70;1.00
29003;DHT22;16102;57.138;-2.118;2023-04-03T05:22:05;5.70;1.00
29003;DHT22;16102;57.138;-2.118;2023-04-03T05:24:32;5.60;1.00
29003;DHT22;16102;57.138;-2.118;2023-04-03T05:26:59;5.70;1.00
29003;DHT22;16102;57.138;-2.118;2023-04-03T05:29:26;5.60;1.00
29003;DHT22;16102;57.138;-2.118;2023-04-03T05:31:53;5.60;1.00
29003;DHT22;16102;57.138;-2.118;2023-04-03T05:34:20;5.60;1.00
29003;DHT22;16102;57.138;-2.118;2023-04-03T05:36:47;5.60;1.00
29003;DHT22;16102;57.138;-2.118;2023-04-03T05:39:14;5.70;1.00
29003;DHT22;16102;57.138;-2.118;2023-04-03T05:41:41;5.70;1.00
29003;DHT22;16102;57.138;-2.118;2023-04-03T05:44:08;5.70;1.00
29003;DHT22;16102;57.138;-2.118;2023-04-03T05:46:35;5.70;1.00
29003;DHT22;16102;57.138;-2.118;2023-04-03T05:49:02;5.80;1.00
29003;DHT22;16102;57.138;-2.118;2023-04-03T05:51:33;5.70;1.00
29003;DHT22;16102;57.138;-2.118;2023-04-03T05:57:01;5.80;1.00
29003;DHT22;16102;57.138;-2.118;2023-04-03T05:59:28;5.80;1.00
29003;DHT22;16102;57.138;-2.118;2023-04-03T06:01:54;5.80;1.00
29003;DHT22;16102;57.138;-2.118;2023-04-03T06:04:22;5.80;1.00
29003;DHT22;16102;57.138;-2.118;2023-04-03T06:06:54;5.80;1.00
29003;DHT22;16102;57.138;-2.118;2023-04-03T06:09:23;5.90;1.00
29003;DHT22;16102;57.138;-2.118;2023-04-03T06:11:51;5.80;1.00
29003;DHT22;16102;57.138;-2.118;2023-04-03T06:14:18;5.90;1.00
29003;DHT22;16102;57.138;-2.118;2023-04-03T06:16:45;5.90;1.00
29003;DHT22;16102;57.138;-2.118;2023-04-03T06:19:12;6.00;1.00
29003;DHT22;16102;57.138;-2.118;2023-04-03T06:21:39;5.90;1.00
29003;DHT22;16102;57.138;-2.118;2023-04-03T06:24:06;6.00;1.00
29003;DHT22;16102;57.138;-2.118;2023-04-03T06:26:34;6.00;1.00
29003;DHT22;16102;57.138;-2.118;2023-04-03T06:29:01;6.00;1.00
29003;DHT22;16102;57.138;-2.118;2023-04-03T06:31:29;6.10;1.00
29003;DHT22;16102;57.138;-2.118;2023-04-03T06:33:56;6.10;1.00
29003;DHT22;16102;57.138;-2.118;2023-04-03T06:36:23;6.20;1.00
29003;DHT22;16102;57.138;-2.118;2023-04-03T06:38:50;6.20;1.00
29003;DHT22;16102;57.138;-2.118;2023-04-03T06:41:17;6.20;1.00
29003;DHT22;16102;57.138;-2.118;2023-04-03T06:43:44;6.20;1.00
29003;DHT22;16102;57.138;-2.118;2023-04-03T06:46:19;6.10;1.00
29003;DHT22;16102;57.138;-2.118;2023-04-03T06:48:48;6.10;1.00
29003;DHT22;16102;57.138;-2.118;2023-04-03T06:51:23;6.10;1.00
29003;DHT22;16102;57.138;-2.118;2023-04-03T06:53:56;6.20;1.00
29003;DHT22;16102;57.138;-2.118;2023-04-03T06:56:24;6.20;1.00
29003;DHT22;16102;57.138;-2.118;2023-04-03T06:58:53;6.10;1.00
29003;DHT22;16102;57.138;-2.118;2023-04-03T07:01:21;6.20;1.00
29003;DHT22;16102;57.138;-2.118;2023-04-03T07:03:48;6.20;1.00
29003;DHT22;16102;57.138;-2.118;2023-04-03T07:06:16;6.20;1.00
29003;DHT22;16102;57.138;-2.118;2023-04-03T07:08:44;6.20;1.00
29003;DHT22;16102;57.138;-2.118;2023-04-03T07:11:13;6.20;1.00
29003;DHT22;16102;57.138;-2.118;2023-04-03T07:13:40;6.20;1.00
29003;DHT22;16102;57.138;-2.118;2023-04-03T07:16:08;6.20;1.00
29003;DHT22;16102;57.138;-2.118;2023-04-03T07:18:35;6.10;1.00
29003;DHT22;16102;57.138;-2.118;2023-04-03T07:21:03;6.20;1.00
29003;DHT22;16102;57.138;-2.118;2023-04-03T07:23:30;6.20;1.00
29003;DHT22;16102;57.138;-2.118;2023-04-03T07:25:57;6.20;1.00
29003;DHT22;16102;57.138;-2.118;2023-04-03T07:28:24;6.20;1.00
29003;DHT22;16102;57.138;-2.118;2023-04-03T07:30:54;6.10;1.00
29003;DHT22;16102;57.138;-2.118;2023-04-03T07:33:25;6.20;1.00
29003;DHT22;16102;57.138;-2.118;2023-04-03T07:35:53;6.10;1.00
29003;DHT22;16102;57.138;-2.118;2023-04-03T07:38:19;6.10;1.00
29003;DHT22;16102;57.138;-2.118;2023-04-03T07:40:47;6.20;1.00
29003;DHT22;16102;57.138;-2.118;2023-04-03T07:43:15;6.20;1.00
29003;DHT22;16102;57.138;-2.118;2023-04-03T07:45:42;6.30;1.00
29003;DHT22;16102;57.138;-2.118;2023-04-03T07:48:11;6.30;1.00
29003;DHT22;16102;57.138;-2.118;2023-04-03T07:50:40;6.30;1.00
29003;DHT22;16102;57.138;-2.118;2023-04-03T07:53:07;6.30;1.00
29003;DHT22;16102;57.138;-2.118;2023-04-03T07:55:35;6.30;1.00
29003;DHT22;16102;57.138;-2.118;2023-04-03T07:58:16;6.20;1.00
29003;DHT22;16102;57.138;-2.118;2023-04-03T08:00:44;6.30;1.00
29003;DHT22;16102;57.138;-2.118;2023-04-03T08:03:12;6.40;1.00
29003;DHT22;16102;57.138;-2.118;2023-04-03T08:05:44;6.50;1.00
29003;DHT22;16102;57.138;-2.118;2023-04-03T08:08:12;6.60;1.00
29003;DHT22;16102;57.138;-2.118;2023-04-03T08:10:40;6.60;1.00
29003;DHT22;16102;57.138;-2.118;2023-04-03T08:13:08;6.60;1.00
29003;DHT22;16102;57.138;-2.118;2023-04-03T08:15:36;6.60;1.00
29003;DHT22;16102;57.138;-2.118;2023-04-03T08:18:03;6.70;1.00
29003;DHT22;16102;57.138;-2.118;2023-04-03T08:20:30;6.60;1.00
29003;DHT22;16102;57.138;-2.118;2023-04-03T08:22:57;6.70;1.00
29003;DHT22;16102;57.138;-2.118;2023-04-03T08:25:24;6.80;1.00
29003;DHT22;16102;57.138;-2.118;2023-04-03T08:27:52;6.90;1.00
29003;DHT22;16102;57.138;-2.118;2023-04-03T08:30:19;6.90;1.00
29003;DHT22;16102;57.138;-2.118;2023-04-03T08:32:47;6.80;1.00
29003;DHT22;16102;57.138;-2.118;2023-04-03T08:35:14;6.70;1.00
29003;DHT22;16102;57.138;-2.118;2023-04-03T08:37:41;6.80;1.00
29003;DHT22;16102;57.138;-2.118;2023-04-03T08:40:13;6.80;1.00
29003;DHT22;16102;57.138;-2.118;2023-04-03T08:42:59;6.90;1.00
29003;DHT22;16102;57.138;-2.118;2023-04-03T08:45:50;6.80;1.00
29003;DHT22;16102;57.138;-2.118;2023-04-03T08:48:26;6.80;1.00
29003;DHT22;16102;57.138;-2.118;2023-04-03T08:50:58;6.90;1.00
29003;DHT22;16102;57.138;-2.118;2023-04-03T08:53:34;6.90;1.00
29003;DHT22;16102;57.138;-2.118;2023-04-03T08:56:09;6.90;1.00
29003;DHT22;16102;57.138;-2.118;2023-04-03T08:59:12;6.90;1.00
29003;DHT22;16102;57.138;-2.118;2023-04-03T09:01:41;6.90;1.00
29003;DHT22;16102;57.138;-2.118;2023-04-03T09:04:13;6.70;1.00
29003;DHT22;16102;57.138;-2.118;2023-04-03T09:06:43;6.70;1.00
29003;DHT22;16102;57.138;-2.118;2023-04-03T09:09:32;6.70;1.00
29003;DHT22;16102;57.138;-2.118;2023-04-03T09:12:24;6.80;1.00
29003;DHT22;16102;57.138;-2.118;2023-04-03T09:15:28;6.80;1.00
29003;DHT22;16102;57.138;-2.118;2023-04-03T09:18:19;6.70;1.00
29003;DHT22;16102;57.138;-2.118;2023-04-03T09:26:14;6.70;1.00
29003;DHT22;16102;57.138;-2.118;2023-04-03T09:28:43;6.90;1.00
29003;DHT22;16102;57.138;-2.118;2023-04-03T09:31:29;7.20;1.00
29003;DHT22;16102;57.138;-2.118;2023-04-03T09:34:20;7.50;1.00
29003;DHT22;16102;57.138;-2.118;2023-04-03T09:36:50;7.60;1.00
29003;DHT22;16102;57.138;-2.118;2023-04-03T09:39:30;7.50;1.00
29003;DHT22;16102;57.138;-2.118;2023-04-03T09:42:05;7.20;1.00
29003;DHT22;16102;57.138;-2.118;2023-04-03T09:44:38;7.30;1.00
29003;DHT22;16102;57.138;-2.118;2023-04-03T09:49:45;7.80;1.00
29003;DHT22;16102;57.138;-2.118;2023-04-03T09:52:39;7.60;1.00
29003;DHT22;16102;57.138;-2.118;2023-04-03T09:55:27;7.70;1.00
29003;DHT22;16102;57.138;-2.118;2023-04-03T09:57:58;7.90;1.00
29003;DHT22;16102;57.138;-2.118;2023-04-03T10:00:36;7.80;1.00
29003;DHT22;16102;57.138;-2.118;2023-04-03T10:03:05;8.00;1.00
29003;DHT22;16102;57.138;-2.118;2023-04-03T10:05:48;7.80;1.00
29003;DHT22;16102;57.138;-2.118;2023-04-03T10:10:47;7.70;1.00
29003;DHT22;16102;57.138;-2.118;2023-04-03T10:13:20;8.10;1.00
29003;DHT22;16102;57.138;-2.118;2023-04-03T10:16:12;8.40;1.00
29003;DHT22;16102;57.138;-2.118;2023-04-03T10:30:01;8.10;1.00
29003;DHT22;16102;57.138;-2.118;2023-04-03T10:51:44;9.00;1.00
29003;DHT22;16102;57.138;-2.118;2023-04-03T10:57:02;8.50;1.00
29003;DHT22;16102;57.138;-2.118;2023-04-03T10:59:51;8.50;1.00
29003;DHT22;16102;57.138;-2.118;2023-04-03T11:02:36;8.40;1.00
29003;DHT22;16102;57.138;-2.118;2023-04-03T11:05:07;8.40;1.00
29003;DHT22;16102;57.138;-2.118;2023-04-03T11:07:42;8.50;1.00
29003;DHT22;16102;57.138;-2.118;2023-04-03T11:10:51;8.70;1.00
29003;DHT22;16102;57.138;-2.118;2023-04-03T11:13:25;8.60;1.00
29003;DHT22;16102;57.138;-2.118;2023-04-03T11:15:53;8.80;1.00
29003;DHT22;16102;57.138;-2.118;2023-04-03T11:18:31;8.70;1.00
29003;DHT22;16102;57.138;-2.118;2023-04-03T11:23:34;9.80;99.90
29003;DHT22;16102;57.138;-2.118;2023-04-03T11:26:18;9.80;99.90
29003;DHT22;16102;57.138;-2.118;2023-04-03T11:28:45;9.80;99.90
29003;DHT22;16102;57.138;-2.118;2023-04-03T11:31:32;10.10;99.90
29003;DHT22;16102;57.138;-2.118;2023-04-03T11:36:58;9.10;99.90
29003;DHT22;16102;57.138;-2.118;2023-04-03T11:42:15;9.60;99.90
29003;DHT22;16102;57.138;-2.118;2023-04-03T11:44:42;9.60;99.90
29003;DHT22;16102;57.138;-2.118;2023-04-03T11:47:10;9.40;99.90
29003;DHT22;16102;57.138;-2.118;2023-04-03T11:50:01;9.30;99.90
29003;DHT22;16102;57.138;-2.118;2023-04-03T12:21:22;11.40;99.90
29003;DHT22;16102;57.138;-2.118;2023-04-03T12:35:21;11.70;99.90
29003;DHT22;16102;57.138;-2.118;2023-04-03T12:38:21;12.70;99.90
29003;DHT22;16102;57.138;-2.118;2023-04-03T12:46:23;13.90;99.90
29003;DHT22;16102;57.138;-2.118;2023-04-03T12:48:54;13.50;99.90
29003;DHT22;16102;57.138;-2.118;2023-04-03T12:51:38;14.00;99.90
29003;DHT22;16102;57.138;-2.118;2023-04-03T12:54:37;14.60;99.90
29003;DHT22;16102;57.138;-2.118;2023-04-03T12:57:26;14.60;99.90
29003;DHT22;16102;57.138;-2.118;2023-04-03T12:59:54;14.90;99.90
29003;DHT22;16102;57.138;-2.118;2023-04-03T13:02:30;15.70;99.90
29003;DHT22;16102;57.138;-2.118;2023-04-03T13:04:58;16.20;99.90
29003;DHT22;16102;57.138;-2.118;2023-04-03T13:07:32;16.00;99.90
29003;DHT22;16102;57.138;-2.118;2023-04-03T13:15:30;15.80;99.90
29003;DHT22;16102;57.138;-2.118;2023-04-03T13:18:31;15.20;99.90
29003;DHT22;16102;57.138;-2.118;2023-04-03T13:21:05;15.20;99.90
29003;DHT22;16102;57.138;-2.118;2023-04-03T13:23:36;14.70;99.90
29003;DHT22;16102;57.138;-2.118;2023-04-03T13:26:04;14.60;99.90
29003;DHT22;16102;57.138;-2.118;2023-04-03T13:28:33;16.00;99.90
29003;DHT22;16102;57.138;-2.118;2023-04-03T13:31:27;15.90;99.90
29003;DHT22;16102;57.138;-2.118;2023-04-03T13:36:39;15.00;99.90
29003;DHT22;16102;57.138;-2.118;2023-04-03T13:39:22;13.50;99.90
29003;DHT22;16102;57.138;-2.118;2023-04-03T13:41:52;13.30;99.90
29003;DHT22;16102;57.138;-2.118;2023-04-03T13:47:00;15.20;99.90
29003;DHT22;16102;57.138;-2.118;2023-04-03T13:49:35;14.70;99.90
29003;DHT22;16102;57.138;-2.118;2023-04-03T13:52:25;15.00;99.90
29003;DHT22;16102;57.138;-2.118;2023-04-03T13:55:02;15.80;99.90
29003;DHT22;16102;57.138;-2.118;2023-04-03T13:57:35;16.10;99.90
29003;DHT22;16102;57.138;-2.118;2023-04-03T14:00:30;15.00;99.90
29003;DHT22;16102;57.138;-2.118;2023-04-03T14:02:58;17.00;99.90
29003;DHT22;16102;57.138;-2.118;2023-04-03T14:05:25;15.00;99.90
29003;DHT22;16102;57.138;-2.118;2023-04-03T14:07:54;15.20;99.90
29003;DHT22;16102;57.138;-2.118;2023-04-03T14:10:22;15.30;99.90
29003;DHT22;16102;57.138;-2.118;2023-04-03T14:12:49;15.10;99.90
29003;DHT22;16102;57.138;-2.118;2023-04-03T14:15:26;15.90;99.90
29003;DHT22;16102;57.138;-2.118;2023-04-03T14:17:54;16.30;99.90
29003;DHT22;16102;57.138;-2.118;2023-04-03T14:20:24;15.80;99.90
29003;DHT22;16102;57.138;-2.118;2023-04-03T14:22:52;16.00;99.90
29003;DHT22;16102;57.138;-2.118;2023-04-03T14:25:22;17.90;99.90
29003;DHT22;16102;57.138;-2.118;2023-04-03T14:27:52;18.50;99.90
29003;DHT22;16102;57.138;-2.118;2023-04-03T14:30:24;16.90;99.90
29003;DHT22;16102;57.138;-2.118;2023-04-03T14:32:52;18.00;99.90
29003;DHT22;16102;57.138;-2.118;2023-04-03T14:35:19;18.20;99.90
29003;DHT22;16102;57.138;-2.118;2023-04-03T14:37:47;18.10;99.90
29003;DHT22;16102;57.138;-2.118;2023-04-03T14:40:18;19.30;99.90
29003;DHT22;16102;57.138;-2.118;2023-04-03T14:42:45;19.70;99.90
29003;DHT22;16102;57.138;-2.118;2023-04-03T14:45:13;20.30;99.90
29003;DHT22;16102;57.138;-2.118;2023-04-03T14:47:49;19.60;99.90
29003;DHT22;16102;57.138;-2.118;2023-04-03T14:50:23;16.40;99.90
29003;DHT22;16102;57.138;-2.118;2023-04-03T14:52:53;16.50;99.90
29003;DHT22;16102;57.138;-2.118;2023-04-03T14:55:23;15.90;99.90
29003;DHT22;16102;57.138;-2.118;2023-04-03T14:57:51;16.00;99.90
29003;DHT22;16102;57.138;-2.118;2023-04-03T15:00:20;17.10;99.90
29003;DHT22;16102;57.138;-2.118;2023-04-03T15:02:47;17.20;99.90
29003;DHT22;16102;57.138;-2.118;2023-04-03T15:05:15;16.90;99.90
29003;DHT22;16102;57.138;-2.118;2023-04-03T15:07:49;16.00;99.90
29003;DHT22;16102;57.138;-2.118;2023-04-03T15:10:22;15.30;99.90
29003;DHT22;16102;57.138;-2.118;2023-04-03T15:12:51;15.40;99.90
29003;DHT22;16102;57.138;-2.118;2023-04-03T15:15:20;16.60;99.90
29003;DHT22;16102;57.138;-2.118;2023-04-03T15:17:56;16.80;99.90
29003;DHT22;16102;57.138;-2.118;2023-04-03T15:20:28;17.40;99.90
29003;DHT22;16102;57.138;-2.118;2023-04-03T15:22:57;17.00;99.90
29003;DHT22;16102;57.138;-2.118;2023-04-03T15:25:27;16.70;99.90
29003;DHT22;16102;57.138;-2.118;2023-04-03T15:27:55;15.10;99.90
29003;DHT22;16102;57.138;-2.118;2023-04-03T15:30:22;15.30;99.90
29003;DHT22;16102;57.138;-2.118;2023-04-03T15:32:49;14.00;99.90
29003;DHT22;16102;57.138;-2.118;2023-04-03T15:35:17;15.10;99.90
29003;DHT22;16102;57.138;-2.118;2023-04-03T15:37:44;15.60;99.90
29003;DHT22;16102;57.138;-2.118;2023-04-03T15:40:12;16.90;99.90
29003;DHT22;16102;57.138;-2.118;2023-04-03T15:42:40;17.60;99.90
29003;DHT22;16102;57.138;-2.118;2023-04-03T15:45:07;16.80;99.90
29003;DHT22;16102;57.138;-2.118;2023-04-03T15:47:34;16.00;99.90
29003;DHT22;16102;57.138;-2.118;2023-04-03T15:50:02;15.20;99.90
29003;DHT22;16102;57.138;-2.118;2023-04-03T15:52:32;13.50;99.90
29003;DHT22;16102;57.138;-2.118;2023-04-03T15:54:59;14.40;99.90
29003;DHT22;16102;57.138;-2.118;2023-04-03T15:57:26;14.80;99.90
29003;DHT22;16102;57.138;-2.118;2023-04-03T15:59:53;14.40;99.90
29003;DHT22;16102;57.138;-2.118;2023-04-03T16:02:20;14.70;99.90
29003;DHT22;16102;57.138;-2.118;2023-04-03T16:04:48;14.10;99.90
29003;DHT22;16102;57.138;-2.118;2023-04-03T16:07:15;13.40;99.90
29003;DHT22;16102;57.138;-2.118;2023-04-03T16:09:42;13.90;99.90
29003;DHT22;16102;57.138;-2.118;2023-04-03T16:12:09;14.60;99.90
29003;DHT22;16102;57.138;-2.118;2023-04-03T16:14:36;13.70;99.90
29003;DHT22;16102;57.138;-2.118;2023-04-03T16:17:03;13.30;99.90
29003;DHT22;16102;57.138;-2.118;2023-04-03T16:19:30;12.70;99.90
29003;DHT22;16102;57.138;-2.118;2023-04-03T16:21:57;12.30;99.90
29003;DHT22;16102;57.138;-2.118;2023-04-03T16:24:24;13.10;99.90
29003;DHT22;16102;57.138;-2.118;2023-04-03T16:26:51;13.40;99.90
29003;DHT22;16102;57.138;-2.118;2023-04-03T16:29:20;12.90;99.90
29003;DHT22;16102;57.138;-2.118;2023-04-03T16:31:46;13.50;99.90
29003;DHT22;16102;57.138;-2.118;2023-04-03T16:34:14;13.70;99.90
29003;DHT22;16102;57.138;-2.118;2023-04-03T16:36:42;13.80;99.90
29003;DHT22;16102;57.138;-2.118;2023-04-03T16:39:08;13.40;99.90
29003;DHT22;16102;57.138;-2.118;2023-04-03T16:41:38;12.90;99.90
29003;DHT22;16102;57.138;-2.118;2023-04-03T16:44:05;13.10;99.90
29003;DHT22;16102;57.138;-2.118;2023-04-03T16:46:34;13.80;99.90
29003;DHT22;16102;57.138;-2.118;2023-04-03T16:49:01;13.60;99.90
29003;DHT22;16102;57.138;-2.118;2023-04-03T16:51:28;13.70;99.90
29003;DHT22;16102;57.138;-2.118;2023-04-03T16:53:55;13.60;99.90
29003;DHT22;16102;57.138;-2.118;2023-04-03T16:56:22;13.30;99.90
29003;DHT22;16102;57.138;-2.118;2023-04-03T16:58:49;12.80;99.90
29003;DHT22;16102;57.138;-2.118;2023-04-03T17:01:18;12.40;99.90
29003;DHT22;16102;57.138;-2.118;2023-04-03T17:03:45;11.60;99.90
29003;DHT22;16102;57.138;-2.118;2023-04-03T17:06:17;11.50;99.90
29003;DHT22;16102;57.138;-2.118;2023-04-03T17:08:46;11.70;99.90
29003;DHT22;16102;57.138;-2.118;2023-04-03T17:11:13;11.50;99.90
29003;DHT22;16102;57.138;-2.118;2023-04-03T17:13:41;11.60;99.90
29003;DHT22;16102;57.138;-2.118;2023-04-03T17:16:11;11.30;99.90
29003;DHT22;16102;57.138;-2.118;2023-04-03T17:18:40;10.90;99.90
29003;DHT22;16102;57.138;-2.118;2023-04-03T17:21:07;10.70;99.90
29003;DHT22;16102;57.138;-2.118;2023-04-03T17:23:36;10.40;99.90
29003;DHT22;16102;57.138;-2.118;2023-04-03T17:26:04;10.20;99.90
29003;DHT22;16102;57.138;-2.118;2023-04-03T17:28:31;10.10;99.90
29003;DHT22;16102;57.138;-2.118;2023-04-03T17:31:00;9.90;99.90
29003;DHT22;16102;57.138;-2.118;2023-04-03T17:33:28;9.90;99.90
29003;DHT22;16102;57.138;-2.118;2023-04-03T17:36:00;10.10;99.90
29003;DHT22;16102;57.138;-2.118;2023-04-03T17:38:28;9.80;99.90
29003;DHT22;16102;57.138;-2.118;2023-04-03T17:40:56;9.60;99.90
29003;DHT22;16102;57.138;-2.118;2023-04-03T17:43:24;9.70;99.90
29003;DHT22;16102;57.138;-2.118;2023-04-03T17:45:51;9.50;99.90
29003;DHT22;16102;57.138;-2.118;2023-04-03T17:48:19;9.30;99.90
29003;DHT22;16102;57.138;-2.118;2023-04-03T17:50:46;9.40;99.90
29003;DHT22;16102;57.138;-2.118;2023-04-03T17:53:13;9.40;1.00
29003;DHT22;16102;57.138;-2.118;2023-04-03T17:55:40;9.40;1.00
29003;DHT22;16102;57.138;-2.118;2023-04-03T17:58:07;9.50;1.00